Bellinghoven, Germany

7:53 PM CEST on March 26, 2017 (GMT +0200)
Erkelenz | | Change Station

Elev 0 ft 51.08 °N, 6.32 °E | Updated 11 minutes ago

Partly Cloudy
Partly Cloudy
60.6 °F
Feels Like 60.6 °F
N
0.6
Wind Variable Wind from NW
Gusts 1.2 mph

Today
High -- | Low -- °F
--% Chance of Precip.
Yesterday
High -- | Low -- °F
Precip. -- in
Pressure 30.21 in
Visibility -9999.0 miles
Clouds
Dew Point 37 °F
Humidity 41%
Rainfall 0.00 in
Snow Depth Not available.
7:23 AM 7:57 PM
Waning Crescent, 2% visible
METAR EDDL 261750Z 03008KT CAVOK 14/M00 Q1023 NOSIG
Pressure 30.21 in
Visibility -9999.0 miles
Clouds
Dew Point 37 °F
Humidity 41%
Rainfall 0.00 in
Snow Depth Not available.
7:23 AM 7:57 PM
Waning Crescent, 2% visible
METAR EDDL 261750Z 03008KT CAVOK 14/M00 Q1023 NOSIG

Get Severe Weather Alerts

Thanks for signing up!

Be on the lookout for a verification email in your inbox.

You'll start receiving the daily forecast at 8 AM.

×

10-Day Weather Forecast

×

Almanac

Astronomy

Mar. 26, 2017 Rise Set
Actual Time
Civil Twilight
Nautical Twilight
Astronomical Twilight
Moon
Length of Visible Light
Length of Day
Tomorrow will be .
, % of the Moon is Illuminated

Today's Extremes

Country Highs Country Lows

Community

WunderPhotos

Upload Photos

1,962,540 photos uploaded!

WunderBlog® & News

Nearby

Air Quality

  Air Quality AQ Index Pollutant
Not available.

Snow Depth

Station Depth Elevation

Earthquake Activity

City Distance Mag. Time & Date
Minimum magnitude displayed is 2.5.

Earthquake Activity

City Distance Mag. Time & Date
Minimum magnitude displayed is 2.5.

Coastal Water Temperatures

Place Temperature

Stations

Nearby Weather Stations

Station Location Temp. Windchill Dew Point Humidity Wind Precip. Elev Updated Type